Time;durP1;ratioP1;P1;durP2;ratioP2;P2;SDS_P1;SDS_P2;PMS_P1;PMS_P2;Temp;Humidity;BMP_temperature;BMP_pressure;BME280_temperature;BME280_humidity;BME280_pressure;Samples;Min_cycle;Max_cycle;Signal;HPM_P1;HPM_P2
2023/06/12 00:01:24;;;;;;;4.30;2.78;;;19.80;66.80;;;;;;5010657;28;21882;-59
2023/06/12 00:03:50;;;;;;;6.38;2.33;;;19.70;66.70;;;;;;5011131;28;20162;-60
2023/06/12 00:06:16;;;;;;;6.85;2.55;;;19.70;66.90;;;;;;5005699;28;20048;-59
2023/06/12 00:08:43;;;;;;;5.82;2.50;;;19.70;67.10;;;;;;5007175;28;20090;-58
2023/06/12 00:11:12;;;;;;;4.90;2.50;;;19.60;67.20;;;;;;5010962;28;20401;-60
2023/06/12 00:13:42;;;;;;;10.50;2.90;;;19.60;67.30;;;;;;5009558;28;20041;-60
2023/06/12 00:16:09;;;;;;;13.07;2.80;;;19.50;67.50;;;;;;4981923;28;20054;-60
2023/06/12 00:18:35;;;;;;;7.15;2.80;;;19.50;67.60;;;;;;4987783;28;20122;-60
2023/06/12 00:21:02;;;;;;;7.53;2.70;;;19.40;67.70;;;;;;4975229;28;20451;-60
2023/06/12 00:23:28;;;;;;;10.30;2.72;;;19.40;67.80;;;;;;4990700;28;20053;-59
2023/06/12 00:25:54;;;;;;;9.02;2.65;;;19.40;67.90;;;;;;4961834;28;20367;-60
2023/06/12 00:28:20;;;;;;;5.13;2.78;;;19.30;67.80;;;;;;4975362;28;20040;-60
2023/06/12 00:30:46;;;;;;;5.55;2.58;;;19.30;68.10;;;;;;4994074;28;20662;-60
2023/06/12 00:33:11;;;;;;;6.05;2.20;;;19.20;68.10;;;;;;4990002;28;20129;-59
2023/06/12 00:35:37;;;;;;;4.93;2.33;;;19.20;68.40;;;;;;4978280;28;20100;-59
2023/06/12 00:38:03;;;;;;;7.30;2.67;;;19.10;68.70;;;;;;4975262;28;20069;-60
2023/06/12 00:40:29;;;;;;;6.75;2.70;;;19.10;68.80;;;;;;4990522;28;20050;-59
2023/06/12 00:42:54;;;;;;;4.00;2.50;;;19.00;68.90;;;;;;4991868;28;20085;-60
2023/06/12 00:45:21;;;;;;;6.55;2.67;;;19.00;69.30;;;;;;4990710;28;20041;-60
2023/06/12 00:47:53;;;;;;;11.82;2.92;;;19.00;69.50;;;;;;4972936;28;20034;-60
2023/06/12 00:50:20;;;;;;;11.63;2.83;;;18.90;69.80;;;;;;4993469;28;20049;-60
2023/06/12 00:52:49;;;;;;;6.10;2.95;;;18.80;70.00;;;;;;4972116;28;20046;-60
2023/06/12 00:55:16;;;;;;;7.93;2.70;;;18.80;70.30;;;;;;4990335;28;20038;-60
2023/06/12 00:57:47;;;;;;;5.78;3.08;;;18.80;70.60;;;;;;4990505;28;20038;-59
2023/06/12 01:00:14;;;;;;;7.03;2.83;;;18.70;71.10;;;;;;4988102;28;20049;-59
2023/06/12 01:02:43;;;;;;;6.88;2.90;;;18.70;71.20;;;;;;4988254;28;20149;-59
2023/06/12 01:05:11;;;;;;;5.10;2.40;;;18.70;71.50;;;;;;4972191;28;20096;-58
2023/06/12 01:07:45;;;;;;;8.57;3.03;;;18.60;71.70;;;;;;4970525;28;20323;-59
2023/06/12 01:10:20;;;;;;;5.40;2.60;;;18.60;71.90;;;;;;4967314;28;20046;-60
2023/06/12 01:12:46;;;;;;;10.60;3.10;;;18.50;72.00;;;;;;4972182;28;20096;-59
2023/06/12 01:15:14;;;;;;;6.28;2.67;;;18.60;72.30;;;;;;4967145;28;20046;-58
2023/06/12 01:17:41;;;;;;;7.32;2.75;;;18.50;72.50;;;;;;4986163;28;20075;-59
2023/06/12 01:20:11;;;;;;;9.63;3.15;;;18.50;72.90;;;;;;4990471;28;20081;-60
2023/06/12 01:22:58;;;;;;;3.55;2.70;;;18.40;73.10;;;;;;5008683;28;20208;-59
2023/06/12 01:25:42;;;;;;;4.93;2.60;;;18.40;73.60;;;;;;4991034;28;20463;-60
2023/06/12 01:28:13;;;;;;;5.18;2.90;;;18.30;74.10;;;;;;5006170;28;20663;-59
2023/06/12 01:30:54;;;;;;;5.78;2.65;;;18.30;74.60;;;;;;4994771;28;20077;-58
2023/06/12 01:33:30;;;;;;;4.55;2.90;;;18.20;75.10;;;;;;5004617;28;20040;-60
2023/06/12 01:35:59;;;;;;;10.98;2.75;;;18.10;75.50;;;;;;4986181;28;20041;-59
2023/06/12 01:38:28;;;;;;;4.43;2.70;;;18.10;76.20;;;;;;5012170;28;20497;-59
2023/06/12 01:40:55;;;;;;;5.95;2.92;;;18.00;76.70;;;;;;5007482;28;20045;-58
2023/06/12 01:43:24;;;;;;;5.50;2.58;;;18.00;78.00;;;;;;4991524;28;20128;-59
2023/06/12 01:45:50;;;;;;;6.00;2.80;;;17.90;77.80;;;;;;4992992;28;20053;-59
2023/06/12 01:48:16;;;;;;;8.18;3.00;;;17.90;78.50;;;;;;4992987;28;20041;-59
2023/06/12 01:50:43;;;;;;;5.18;3.00;;;17.80;79.20;;;;;;4990658;28;20051;-60
2023/06/12 01:53:10;;;;;;;10.05;3.13;;;17.80;79.80;;;;;;5012537;28;20082;-60
2023/06/12 01:55:37;;;;;;;7.07;3.00;;;17.70;80.50;;;;;;4974891;28;20042;-59
2023/06/12 01:58:03;;;;;;;4.97;2.92;;;17.70;81.30;;;;;;5009701;28;20068;-59
2023/06/12 02:00:30;;;;;;;5.30;3.28;;;17.70;82.30;;;;;;5009716;28;20609;-60
2023/06/12 02:02:56;;;;;;;9.95;3.20;;;17.60;83.20;;;;;;4972633;28;20237;-60
2023/06/12 02:05:22;;;;;;;6.82;3.00;;;17.60;83.90;;;;;;4990750;28;20040;-59
2023/06/12 02:07:48;;;;;;;6.03;3.65;;;17.60;85.10;;;;;;5013197;28;20045;-59
2023/06/12 02:10:15;;;;;;;9.77;2.90;;;17.50;86.30;;;;;;5013147;28;20041;-59
2023/06/12 02:12:43;;;;;;;11.10;3.30;;;17.50;87.30;;;;;;4995046;28;20390;-60
2023/06/12 02:15:13;;;;;;;9.50;2.90;;;17.50;88.40;;;;;;4995192;28;20049;-59
2023/06/12 02:17:39;;;;;;;9.50;3.45;;;17.50;89.40;;;;;;4989507;28;20049;-59
2023/06/12 02:20:05;;;;;;;6.22;3.20;;;17.40;90.20;;;;;;4974230;28;20041;-59
2023/06/12 02:22:31;;;;;;;6.85;3.10;;;17.30;90.90;;;;;;4969950;28;20375;-59
2023/06/12 02:24:57;;;;;;;5.43;2.75;;;17.30;91.40;;;;;;4973369;28;20052;-59
2023/06/12 02:27:23;;;;;;;11.02;3.65;;;17.20;91.90;;;;;;4989521;28;20136;-60
2023/06/12 02:29:49;;;;;;;10.27;3.50;;;17.20;92.30;;;;;;4974595;28;20548;-58
2023/06/12 02:32:15;;;;;;;9.05;3.30;;;17.10;92.90;;;;;;4987613;28;20038;-60
2023/06/12 02:34:40;;;;;;;8.85;3.10;;;17.10;93.60;;;;;;4975722;28;20046;-59
2023/06/12 02:37:10;;;;;;;5.05;3.28;;;17.00;94.10;;;;;;4990998;28;20057;-59
2023/06/12 02:39:36;;;;;;;10.00;3.63;;;17.00;94.40;;;;;;4956201;28;20041;-60
2023/06/12 02:42:02;;;;;;;5.05;3.25;;;17.00;94.80;;;;;;4974991;28;20120;-59
2023/06/12 02:44:27;;;;;;;11.55;3.35;;;16.90;95.00;;;;;;4970268;28;20495;-59
2023/06/12 02:46:55;;;;;;;9.18;3.33;;;16.90;95.40;;;;;;4994102;28;20038;-60
2023/06/12 02:49:21;;;;;;;7.68;3.58;;;16.90;95.70;;;;;;4972019;28;20072;-60
2023/06/12 02:51:47;;;;;;;8.05;2.95;;;16.90;96.20;;;;;;4982010;28;20460;-61
2023/06/12 02:54:15;;;;;;;7.10;3.22;;;16.80;96.50;;;;;;4943237;28;20128;-60
2023/06/12 02:56:47;;;;;;;5.18;3.20;;;16.80;96.90;;;;;;4973730;28;20533;-59
2023/06/12 02:59:15;;;;;;;9.77;3.28;;;16.80;97.30;;;;;;4976082;28;20052;-59
2023/06/12 03:01:43;;;;;;;7.22;3.10;;;16.80;97.40;;;;;;4992266;28;20043;-59
2023/06/12 03:04:15;;;;;;;7.13;3.03;;;16.80;97.70;;;;;;4989371;28;20092;-60
2023/06/12 03:06:44;;;;;;;11.60;3.25;;;16.70;97.90;;;;;;4989763;28;20034;-59
2023/06/12 03:09:10;;;;;;;4.65;3.15;;;16.70;98.30;;;;;;4979202;28;20385;-59
2023/06/12 03:11:37;;;;;;;6.40;3.47;;;16.60;98.60;;;;;;4977898;28;20066;-60
2023/06/12 03:14:07;;;;;;;8.73;3.70;;;16.60;98.90;;;;;;4958759;28;20041;-60
2023/06/12 03:16:33;;;;;;;10.15;3.28;;;16.60;99.20;;;;;;5000790;28;20053;-60
2023/06/12 03:19:00;;;;;;;7.43;3.45;;;16.60;99.50;;;;;;5011702;28;20049;-59
2023/06/12 03:21:26;;;;;;;9.90;3.63;;;16.60;99.70;;;;;;5012470;28;20033;-60
2023/06/12 03:23:52;;;;;;;9.00;3.67;;;16.50;99.90;;;;;;4978559;28;20789;-60
2023/06/12 03:26:17;;;;;;;5.75;3.38;;;16.50;99.90;;;;;;4995949;28;20045;-60
2023/06/12 03:28:44;;;;;;;4.72;3.35;;;16.50;99.90;;;;;;5010893;28;20059;-59
2023/06/12 03:31:10;;;;;;;5.25;3.20;;;16.50;99.90;;;;;;5010807;28;20042;-59
2023/06/12 03:33:36;;;;;;;9.32;3.60;;;16.50;99.90;;;;;;5013072;28;20041;-60
2023/06/12 03:36:02;;;;;;;10.02;3.80;;;16.50;99.90;;;;;;5012872;28;20045;-60
2023/06/12 03:38:28;;;;;;;9.15;3.90;;;16.50;99.90;;;;;;4975206;28;20461;-60
2023/06/12 03:40:54;;;;;;;12.90;3.35;;;16.40;99.90;;;;;;5016259;28;20037;-59
2023/06/12 03:43:19;;;;;;;10.98;4.30;;;16.50;99.90;;;;;;4997473;28;20042;-60
2023/06/12 03:45:45;;;;;;;5.82;3.40;;;16.40;99.90;;;;;;4983055;28;20077;-60
2023/06/12 03:48:11;;;;;;;9.40;3.35;;;16.40;99.90;;;;;;4995295;28;20135;-59
2023/06/12 03:50:37;;;;;;;10.23;3.88;;;16.40;99.90;;;;;;5011178;28;20045;-58
2023/06/12 03:53:03;;;;;;;8.73;3.67;;;16.40;99.90;;;;;;5013128;28;20038;-60
2023/06/12 03:55:29;;;;;;;6.65;3.78;;;16.40;99.90;;;;;;5014788;28;20042;-60
2023/06/12 03:57:55;;;;;;;24.55;4.13;;;16.40;99.90;;;;;;5011342;28;20035;-59
2023/06/12 04:00:21;;;;;;;8.43;3.50;;;16.40;99.90;;;;;;4998784;28;20045;-59
2023/06/12 04:02:47;;;;;;;8.00;3.75;;;16.40;99.90;;;;;;5009480;28;20078;-59
2023/06/12 04:05:13;;;;;;;8.13;3.60;;;16.40;99.90;;;;;;5012156;28;20481;-60
2023/06/12 04:07:39;;;;;;;6.80;3.83;;;16.40;99.90;;;;;;5011989;28;20090;-60
2023/06/12 04:10:09;;;;;;;6.32;3.80;;;16.50;99.90;;;;;;4992728;28;20090;-59
2023/06/12 04:12:35;;;;;;;10.40;3.80;;;16.50;99.90;;;;;;5013298;28;20075;-59
2023/06/12 04:15:02;;;;;;;11.10;4.28;;;16.50;99.90;;;;;;5012179;28;20172;-60
2023/06/12 04:17:29;;;;;;;6.70;3.53;;;16.50;99.90;;;;;;5012939;28;20058;-59
2023/06/12 04:19:56;;;;;;;6.90;3.55;;;16.50;99.90;;;;;;4988461;28;20053;-60
2023/06/12 04:22:25;;;;;;;10.43;4.07;;;16.50;99.90;;;;;;5004591;28;20038;-60
2023/06/12 04:24:55;;;;;;;11.88;4.38;;;16.50;99.90;;;;;;4995300;28;20037;-60
2023/06/12 04:27:20;;;;;;;11.88;3.95;;;16.60;99.90;;;;;;4993552;28;20408;-60
2023/06/12 04:29:46;;;;;;;7.75;3.95;;;16.60;99.90;;;;;;5009385;28;20037;-59
2023/06/12 04:32:13;;;;;;;12.18;4.03;;;16.60;99.90;;;;;;5013000;28;20038;-60
2023/06/12 04:34:40;;;;;;;8.20;3.80;;;16.60;99.90;;;;;;4986622;28;20048;-60
2023/06/12 04:37:11;;;;;;;10.15;4.22;;;16.60;99.90;;;;;;5009286;28;20092;-60
2023/06/12 04:39:40;;;;;;;11.13;4.07;;;16.70;99.90;;;;;;4983892;28;20038;-60
2023/06/12 04:42:08;;;;;;;12.38;4.28;;;16.70;99.90;;;;;;5011044;28;20537;-60
2023/06/12 04:44:39;;;;;;;9.05;3.70;;;16.70;99.90;;;;;;4993183;28;20045;-59
2023/06/12 04:47:08;;;;;;;10.90;4.03;;;16.70;99.90;;;;;;4992047;28;20041;-60
2023/06/12 04:49:35;;;;;;;7.45;3.92;;;16.70;99.90;;;;;;4992280;28;20080;-58
2023/06/12 04:52:03;;;;;;;8.68;4.13;;;16.80;99.90;;;;;;4980824;28;20042;-60
2023/06/12 04:54:35;;;;;;;10.35;4.60;;;16.80;99.90;;;;;;4975817;28;20548;-59
2023/06/12 04:57:12;;;;;;;14.77;4.68;;;16.80;99.90;;;;;;5000131;28;20501;-60
2023/06/12 04:59:39;;;;;;;12.60;3.95;;;16.80;99.90;;;;;;4990743;28;20060;-60
2023/06/12 05:02:08;;;;;;;8.75;4.35;;;16.80;99.90;;;;;;5007872;28;20041;-58
2023/06/12 05:04:36;;;;;;;6.60;4.18;;;16.80;99.90;;;;;;4994160;28;21157;-59
2023/06/12 05:07:04;;;;;;;5.93;4.22;;;16.90;99.90;;;;;;5006029;28;20071;-59
2023/06/12 05:09:30;;;;;;;8.95;4.25;;;16.90;99.90;;;;;;5008433;28;20044;-60
2023/06/12 05:11:56;;;;;;;7.38;4.38;;;17.00;99.90;;;;;;5007231;28;20120;-60
2023/06/12 05:14:22;;;;;;;13.20;4.35;;;17.00;99.90;;;;;;4974808;28;20535;-61
2023/06/12 05:16:48;;;;;;;10.85;4.30;;;17.00;99.90;;;;;;4985218;28;21005;-60
2023/06/12 05:19:14;;;;;;;10.13;4.57;;;17.00;99.90;;;;;;5002373;28;20034;-60
2023/06/12 05:21:41;;;;;;;11.95;4.88;;;17.00;99.90;;;;;;5005843;28;20045;-59
2023/06/12 05:24:07;;;;;;;9.27;5.28;;;17.10;99.90;;;;;;5009659;28;20732;-60
2023/06/12 05:26:33;;;;;;;9.73;4.50;;;17.10;99.90;;;;;;5008393;28;20099;-59
2023/06/12 05:29:01;;;;;;;11.10;5.03;;;17.10;99.90;;;;;;5010593;28;20037;-60
2023/06/12 05:31:28;;;;;;;12.23;5.13;;;17.20;99.90;;;;;;5001023;28;20050;-59
2023/06/12 05:33:54;;;;;;;10.82;4.63;;;17.20;99.90;;;;;;5006806;28;20132;-60
2023/06/12 05:36:20;;;;;;;7.88;4.97;;;17.20;99.90;;;;;;5005601;28;20409;-59
2023/06/12 05:38:46;;;;;;;9.63;6.03;;;17.30;99.90;;;;;;4989957;28;20045;-59
2023/06/12 05:41:14;;;;;;;9.82;5.30;;;17.30;99.90;;;;;;4984074;28;20049;-59
2023/06/12 05:43:40;;;;;;;12.63;5.50;;;17.30;99.90;;;;;;4980838;28;20764;-59
2023/06/12 05:46:06;;;;;;;8.82;5.07;;;17.40;99.90;;;;;;4979910;28;20134;-59
2023/06/12 05:48:31;;;;;;;12.27;5.13;;;17.40;99.90;;;;;;4958454;28;20052;-60
2023/06/12 05:50:57;;;;;;;10.90;4.88;;;17.40;99.90;;;;;;4992519;28;20437;-58
2023/06/12 05:53:23;;;;;;;10.13;5.00;;;17.40;99.90;;;;;;5001618;28;20120;-59
2023/06/12 05:55:48;;;;;;;10.20;5.07;;;17.50;99.90;;;;;;5012098;28;20072;-59
2023/06/12 05:58:14;;;;;;;9.27;5.10;;;17.60;99.90;;;;;;4996751;28;20038;-60
2023/06/12 06:00:40;;;;;;;12.75;5.53;;;17.60;99.90;;;;;;5002650;28;20515;-63
2023/06/12 06:03:07;;;;;;;11.85;5.38;;;17.70;99.90;;;;;;5009721;28;26013;-59
2023/06/12 06:05:32;;;;;;;10.43;5.40;;;17.70;99.90;;;;;;4971879;28;20049;-59
2023/06/12 06:07:58;;;;;;;9.70;5.20;;;17.90;99.90;;;;;;5007086;28;20494;-60
2023/06/12 06:10:24;;;;;;;14.00;5.35;;;18.00;99.90;;;;;;4973721;28;20436;-59
2023/06/12 06:12:52;;;;;;;12.20;5.57;;;18.10;99.90;;;;;;5006737;28;20123;-59
2023/06/12 06:15:18;;;;;;;13.30;4.95;;;18.20;99.90;;;;;;5004728;28;20054;-66
2023/06/12 06:17:44;;;;;;;12.73;5.18;;;18.30;99.90;;;;;;4958553;28;20097;-72
2023/06/12 06:20:11;;;;;;;13.48;5.38;;;18.40;99.90;;;;;;4960960;28;20139;-72
2023/06/12 06:22:37;;;;;;;11.90;5.22;;;18.50;99.90;;;;;;4971322;28;20041;-72
2023/06/12 06:25:04;;;;;;;15.00;4.95;;;18.60;99.90;;;;;;4875176;28;20740;-72
2023/06/12 06:27:30;;;;;;;13.50;5.78;;;18.80;99.90;;;;;;4971181;28;20491;-72
2023/06/12 06:29:56;;;;;;;11.05;5.05;;;18.80;99.90;;;;;;4955276;28;20093;-72
2023/06/12 06:32:21;;;;;;;11.52;5.80;;;18.90;99.90;;;;;;4942876;28;20483;-72
2023/06/12 06:34:48;;;;;;;14.65;5.47;;;19.00;99.90;;;;;;4953522;28;20034;-72
2023/06/12 06:37:14;;;;;;;9.75;5.15;;;19.10;99.90;;;;;;4955832;28;20462;-71
2023/06/12 06:39:40;;;;;;;10.15;5.10;;;19.20;99.90;;;;;;4973230;28;20045;-72
2023/06/12 06:42:06;;;;;;;11.18;5.47;;;19.30;99.90;;;;;;4977023;28;20463;-72
2023/06/12 06:44:32;;;;;;;13.32;5.15;;;19.50;99.90;;;;;;4994317;28;20683;-72
2023/06/12 06:46:58;;;;;;;14.50;5.63;;;19.60;99.90;;;;;;4966508;28;20038;-71
2023/06/12 06:49:24;;;;;;;12.90;5.50;;;19.60;99.90;;;;;;4977289;28;20049;-72
2023/06/12 06:51:49;;;;;;;13.52;5.70;;;19.70;99.90;;;;;;4964154;28;20042;-72
2023/06/12 06:54:15;;;;;;;12.55;4.90;;;19.80;99.90;;;;;;4995005;28;20045;-72
2023/06/12 06:56:41;;;;;;;14.45;5.45;;;20.00;99.90;;;;;;4947869;28;20133;-72
2023/06/12 06:59:06;;;;;;;14.45;6.07;;;20.10;99.90;;;;;;4977308;28;20038;-72
2023/06/12 07:01:33;;;;;;;12.75;5.50;;;20.20;99.90;;;;;;4956934;28;20038;-72
2023/06/12 07:03:59;;;;;;;9.55;5.03;;;20.30;99.90;;;;;;4956617;28;20053;-72
2023/06/12 07:06:26;;;;;;;9.02;4.95;;;20.40;99.90;;;;;;4955348;28;20053;-71
2023/06/12 07:08:51;;;;;;;13.57;5.43;;;20.50;99.90;;;;;;4973516;28;20078;-71
2023/06/12 07:11:17;;;;;;;10.13;5.00;;;20.70;99.90;;;;;;4979414;28;20125;-72
2023/06/12 07:13:43;;;;;;;10.25;4.85;;;20.80;99.90;;;;;;4973877;28;20045;-72
2023/06/12 07:16:09;;;;;;;13.88;5.40;;;20.90;99.90;;;;;;4984091;28;20294;-71
2023/06/12 07:18:34;;;;;;;8.45;4.97;;;21.10;99.90;;;;;;4980991;28;20056;-72
2023/06/12 07:21:00;;;;;;;19.67;5.10;;;21.20;99.90;;;;;;4999353;28;20511;-71
2023/06/12 07:23:26;;;;;;;13.40;4.82;;;21.30;99.90;;;;;;4976121;28;20076;-71
2023/06/12 07:25:52;;;;;;;11.27;5.03;;;21.40;99.90;;;;;;4994233;28;20038;-71
2023/06/12 07:28:17;;;;;;;15.10;5.35;;;21.50;99.90;;;;;;4965946;28;20046;-72
2023/06/12 07:30:43;;;;;;;8.73;5.22;;;21.60;99.90;;;;;;4939413;28;20065;-71
2023/06/12 07:33:10;;;;;;;11.15;5.30;;;21.80;99.80;;;;;;4975657;28;20042;-71
2023/06/12 07:35:36;;;;;;;10.65;5.53;;;21.90;99.50;;;;;;4984778;28;20041;-71
2023/06/12 07:38:02;;;;;;;12.50;5.40;;;21.90;99.20;;;;;;4960209;28;20122;-71
2023/06/12 07:40:28;;;;;;;14.35;5.63;;;22.00;99.00;;;;;;5000466;28;20497;-71
2023/06/12 07:42:54;;;;;;;11.70;5.90;;;22.10;99.00;;;;;;4984747;28;20048;-71
2023/06/12 07:45:20;;;;;;;12.15;5.95;;;22.20;99.10;;;;;;4997389;28;20076;-70
2023/06/12 07:47:47;;;;;;;21.35;6.13;;;22.30;98.80;;;;;;4963514;28;20053;-70
2023/06/12 07:50:13;;;;;;;12.43;6.35;;;22.50;98.70;;;;;;4997276;28;20109;-71
2023/06/12 07:52:39;;;;;;;12.63;6.18;;;22.60;98.80;;;;;;4977735;28;20481;-71
2023/06/12 07:55:05;;;;;;;13.77;7.03;;;22.70;98.70;;;;;;4993787;28;20126;-71
2023/06/12 07:57:31;;;;;;;12.82;7.15;;;22.80;98.50;;;;;;4998251;28;20096;-71
2023/06/12 07:59:57;;;;;;;14.45;6.47;;;22.80;98.40;;;;;;4980409;28;20052;-70
2023/06/12 08:02:28;;;;;;;11.20;6.28;;;22.90;98.30;;;;;;4978884;28;20038;-70
2023/06/12 08:04:55;;;;;;;8.35;5.53;;;23.00;98.10;;;;;;4996564;28;20096;-70
2023/06/12 08:07:22;;;;;;;10.25;5.28;;;23.10;97.90;;;;;;4982374;28;20321;-70
2023/06/12 08:09:48;;;;;;;8.02;4.88;;;23.20;97.50;;;;;;4961354;28;20044;-70
2023/06/12 08:12:13;;;;;;;10.65;4.93;;;23.30;97.00;;;;;;4995029;28;20441;-70
2023/06/12 08:14:40;;;;;;;11.38;5.15;;;23.40;96.70;;;;;;4981989;28;20069;-70
2023/06/12 08:17:06;;;;;;;9.60;5.30;;;23.40;96.30;;;;;;4990729;28;20085;-71
2023/06/12 08:19:32;;;;;;;7.57;5.00;;;23.50;96.10;;;;;;4973554;28;20042;-69
2023/06/12 08:21:59;;;;;;;9.70;5.43;;;23.60;95.80;;;;;;5001094;28;20037;-70
2023/06/12 08:24:29;;;;;;;11.98;5.45;;;23.70;95.70;;;;;;4985327;28;20678;-70
2023/06/12 08:26:56;;;;;;;10.07;5.40;;;23.80;95.30;;;;;;4988324;28;20042;-70
2023/06/12 08:29:22;;;;;;;12.48;5.13;;;23.90;95.00;;;;;;5009127;28;20045;-69
2023/06/12 08:31:48;;;;;;;10.40;5.90;;;24.00;94.90;;;;;;4967265;28;20115;-69
2023/06/12 08:34:13;;;;;;;14.15;6.22;;;24.10;94.70;;;;;;4967629;28;20030;-70
2023/06/12 08:36:39;;;;;;;10.85;5.55;;;24.20;94.00;;;;;;4987057;28;20067;-69
2023/06/12 08:39:05;;;;;;;14.82;5.95;;;24.30;93.70;;;;;;5003337;28;20058;-69
2023/06/12 08:41:34;;;;;;;10.38;5.35;;;24.30;93.60;;;;;;4993276;28;20124;-70
2023/06/12 08:44:00;;;;;;;12.02;5.18;;;24.40;93.40;;;;;;4993624;28;20410;-69
2023/06/12 08:46:30;;;;;;;10.40;5.63;;;24.60;92.90;;;;;;4985718;28;20045;-70
2023/06/12 08:48:59;;;;;;;10.05;5.47;;;24.70;92.50;;;;;;4986576;28;20128;-70
2023/06/12 08:51:26;;;;;;;12.35;5.47;;;24.80;92.40;;;;;;5000211;28;20045;-69
2023/06/12 08:53:53;;;;;;;9.05;4.65;;;24.80;91.10;;;;;;4926616;28;21199;-71
2023/06/12 08:56:20;;;;;;;14.93;5.80;;;24.90;90.70;;;;;;4978495;28;20053;-70
2023/06/12 08:58:46;;;;;;;8.40;5.13;;;25.00;90.60;;;;;;4973568;28;20542;-70
2023/06/12 09:01:12;;;;;;;7.93;5.18;;;25.20;90.90;;;;;;4970345;28;20040;-69
2023/06/12 09:03:43;;;;;;;8.23;5.20;;;25.30;90.40;;;;;;4955015;28;20046;-70
2023/06/12 09:06:11;;;;;;;7.75;4.78;;;25.40;89.00;;;;;;4988566;28;20076;-70
2023/06/12 09:08:38;;;;;;;9.20;4.90;;;25.40;87.50;;;;;;4976416;28;20165;-69
2023/06/12 09:11:05;;;;;;;14.30;5.53;;;25.50;85.90;;;;;;4958870;28;20037;-70
2023/06/12 09:13:41;;;;;;;7.90;4.82;;;25.60;84.50;;;;;;4982546;28;20041;-70
2023/06/12 09:16:14;;;;;;;8.70;4.20;;;25.60;82.90;;;;;;4995348;28;20511;-71
2023/06/12 09:18:49;;;;;;;;;;;25.70;82.00;;;;;;4995936;28;20045;-69
2023/06/12 09:21:16;;;;;;;6.40;4.75;;;25.90;83.40;;;;;;4983959;28;19921;-71
2023/06/12 09:23:45;;;;;;;7.75;4.97;;;26.00;81.10;;;;;;4977855;28;20550;-69
2023/06/12 09:26:15;;;;;;;9.82;4.90;;;26.20;80.80;;;;;;4959885;28;20293;-70
2023/06/12 09:28:42;;;;;;;8.77;4.90;;;26.30;80.00;;;;;;4998537;28;20049;-69
2023/06/12 09:31:08;;;;;;;13.85;5.05;;;26.40;78.50;;;;;;4997931;28;20043;-69
2023/06/12 09:33:41;;;;;;;9.90;6.22;;;26.50;78.30;;;;;;4995224;28;20777;-71
2023/06/12 09:36:11;;;;;;;7.60;5.18;;;26.50;76.30;;;;;;4967443;28;20033;-70
2023/06/12 09:38:37;;;;;;;7.32;5.03;;;26.50;77.20;;;;;;4994906;28;20131;-69
2023/06/12 09:41:05;;;;;;;9.30;5.35;;;26.60;77.50;;;;;;4994419;28;20493;-69
2023/06/12 09:43:31;;;;;;;7.70;5.32;;;26.70;77.30;;;;;;4972651;28;20048;-68
2023/06/12 09:45:58;;;;;;;7.50;5.25;;;26.90;77.20;;;;;;4976301;28;20080;-69
2023/06/12 09:48:30;;;;;;;12.95;4.82;;;26.90;75.40;;;;;;4990606;28;20041;-69
2023/06/12 09:50:56;;;;;;;7.93;4.93;;;27.00;75.20;;;;;;5000239;28;20128;-71
2023/06/12 09:53:22;;;;;;;7.57;4.32;;;27.00;74.70;;;;;;4972890;28;20045;-70
2023/06/12 09:55:49;;;;;;;9.80;4.50;;;27.10;72.80;;;;;;4954146;28;20074;-68
2023/06/12 09:58:17;;;;;;;10.65;4.95;;;27.30;73.40;;;;;;4990342;28;20044;-70
2023/06/12 10:00:43;;;;;;;12.05;4.57;;;27.40;72.10;;;;;;4988305;28;20049;-70
2023/06/12 10:03:14;;;;;;;10.63;4.85;;;27.50;71.10;;;;;;4952171;28;20042;-68
2023/06/12 10:05:48;;;;;;;12.05;5.35;;;27.60;70.50;;;;;;4914151;28;20052;-68
2023/06/12 10:08:17;;;;;;;12.07;4.97;;;27.80;71.10;;;;;;4981689;28;20073;-69
2023/06/12 10:10:43;;;;;;;10.93;5.13;;;27.90;70.90;;;;;;4989655;28;20790;-70
2023/06/12 10:13:12;;;;;;;6.13;4.93;;;27.90;69.80;;;;;;4959836;28;20038;-70
2023/06/12 10:15:39;;;;;;;10.40;4.53;;;28.00;69.50;;;;;;4979752;28;20053;-70
2023/06/12 10:18:09;;;;;;;8.63;4.60;;;28.00;68.60;;;;;;4973131;28;20076;-69
2023/06/12 10:20:36;;;;;;;10.77;4.72;;;28.10;67.60;;;;;;4989627;28;20095;-68
2023/06/12 10:23:04;;;;;;;8.63;5.22;;;28.20;68.30;;;;;;4987814;28;20044;-68
2023/06/12 10:25:31;;;;;;;11.10;4.95;;;28.20;68.10;;;;;;4985994;28;20048;-69
2023/06/12 10:27:58;;;;;;;7.97;4.72;;;28.30;68.50;;;;;;4969319;28;20352;-69
2023/06/12 10:30:24;;;;;;;8.02;5.40;;;28.40;68.80;;;;;;4960013;28;20181;-70
2023/06/12 10:32:50;;;;;;;7.63;4.88;;;28.50;68.20;;;;;;4932436;28;20050;-68
2023/06/12 10:35:31;;;;;;;7.50;4.90;;;28.60;67.70;;;;;;4987419;28;20049;-68
2023/06/12 10:37:57;;;;;;;8.60;4.25;;;28.70;66.70;;;;;;4954822;28;20049;-68
2023/06/12 10:40:24;;;;;;;9.93;4.63;;;28.80;66.70;;;;;;4985251;28;20042;-68
2023/06/12 10:43:02;;;;;;;10.07;4.18;;;29.00;65.30;;;;;;4992418;28;20143;-68
2023/06/12 10:45:28;;;;;;;9.27;4.32;;;29.10;64.60;;;;;;4998766;28;20045;-68
2023/06/12 10:48:06;;;;;;;7.30;4.32;;;29.30;64.00;;;;;;4974598;28;20463;-68
2023/06/12 10:50:45;;;;;;;8.80;4.57;;;29.40;64.00;;;;;;4996142;28;20053;-68
2023/06/12 10:53:13;;;;;;;8.00;4.60;;;29.50;63.40;;;;;;4994867;28;20049;-68
2023/06/12 10:55:39;;;;;;;4.93;4.28;;;29.50;63.50;;;;;;4994150;28;20511;-69
2023/06/12 10:58:10;;;;;;;7.72;4.70;;;29.70;62.80;;;;;;4989308;28;20046;-68
2023/06/12 11:00:38;;;;;;;9.48;4.78;;;29.80;62.10;;;;;;4990585;28;20065;-69
2023/06/12 11:03:05;;;;;;;8.27;4.50;;;29.80;61.80;;;;;;4991517;28;20053;-68
2023/06/12 11:05:33;;;;;;;10.55;4.60;;;29.90;62.00;;;;;;4981332;28;20041;-68
2023/06/12 11:08:04;;;;;;;10.70;4.28;;;30.00;60.90;;;;;;4992148;28;20530;-70
2023/06/12 11:10:31;;;;;;;5.60;4.38;;;30.10;60.60;;;;;;4992285;28;20042;-68
2023/06/12 11:12:57;;;;;;;6.53;4.75;;;30.30;61.60;;;;;;4993003;28;20045;-68
2023/06/12 11:15:24;;;;;;;8.80;5.47;;;30.50;61.60;;;;;;4995378;28;20041;-68
2023/06/12 11:17:51;;;;;;;8.80;5.10;;;30.60;60.50;;;;;;4983270;28;20056;-68
2023/06/12 11:20:19;;;;;;;8.05;5.28;;;30.60;59.70;;;;;;4991995;28;20111;-68
2023/06/12 11:22:55;;;;;;;7.93;4.55;;;30.50;58.60;;;;;;4993537;28;20053;-68
2023/06/12 11:25:22;;;;;;;7.68;4.93;;;30.60;58.10;;;;;;4968074;28;20096;-68
2023/06/12 11:27:48;;;;;;;8.05;5.30;;;30.80;58.30;;;;;;4999873;28;20042;-67
2023/06/12 11:30:15;;;;;;;5.57;4.78;;;31.00;58.30;;;;;;4999373;28;20107;-70
2023/06/12 11:32:42;;;;;;;7.97;5.47;;;31.10;57.70;;;;;;4996114;28;20444;-70
2023/06/12 11:35:09;;;;;;;9.65;4.82;;;31.20;57.60;;;;;;4991288;28;20386;-67
2023/06/12 11:37:40;;;;;;;7.47;5.15;;;31.30;57.60;;;;;;4984515;28;20045;-69
2023/06/12 11:40:14;;;;;;;11.30;4.80;;;31.40;57.70;;;;;;4989548;28;20050;-70
2023/06/12 11:42:44;;;;;;;15.02;5.25;;;31.50;57.80;;;;;;4988945;28;20042;-70
2023/06/12 11:45:15;;;;;;;7.63;4.85;;;31.60;57.70;;;;;;5003164;28;20057;-68
2023/06/12 11:47:42;;;;;;;7.10;4.53;;;31.70;57.40;;;;;;4994469;28;20645;-68
2023/06/12 11:50:15;;;;;;;6.88;4.78;;;31.90;58.20;;;;;;4998813;28;20234;-68
2023/06/12 11:52:42;;;;;;;10.65;5.13;;;32.10;57.20;;;;;;4996216;28;20617;-68
2023/06/12 11:55:10;;;;;;;6.53;4.88;;;32.20;56.00;;;;;;5001521;28;20116;-67
2023/06/12 11:57:37;;;;;;;6.95;4.90;;;32.20;55.10;;;;;;4954167;28;20042;-68
2023/06/12 12:00:13;;;;;;;9.85;5.03;;;32.20;54.30;;;;;;4975666;28;20037;-68
2023/06/12 12:02:51;;;;;;;5.47;4.60;;;32.20;54.20;;;;;;4994396;28;20056;-69
2023/06/12 12:05:22;;;;;;;5.72;4.90;;;32.30;53.60;;;;;;4963038;28;20489;-68
2023/06/12 12:08:00;;;;;;;7.93;4.63;;;32.40;53.30;;;;;;4974529;28;20052;-68
2023/06/12 12:10:27;;;;;;;6.32;4.95;;;32.50;53.40;;;;;;4981228;28;20322;-68
2023/06/12 12:13:00;;;;;;;9.05;4.80;;;32.60;53.30;;;;;;4969951;28;20049;-67
2023/06/12 12:15:31;;;;;;;6.32;5.00;;;32.70;51.40;;;;;;4993244;28;20046;-69
2023/06/12 12:17:58;;;;;;;8.13;4.90;;;32.70;50.80;;;;;;4995653;28;20108;-67
2023/06/12 12:20:25;;;;;;;8.88;4.90;;;32.80;51.60;;;;;;4978283;28;20064;-69
2023/06/12 12:22:54;;;;;;;7.43;4.90;;;33.00;52.10;;;;;;4996052;28;20041;-67
2023/06/12 12:25:22;;;;;;;7.25;4.90;;;33.10;52.00;;;;;;4966529;28;20099;-67
2023/06/12 12:27:53;;;;;;;5.72;4.40;;;33.20;52.30;;;;;;4983242;28;20049;-69
2023/06/12 12:30:21;;;;;;;7.10;4.85;;;33.20;52.20;;;;;;4974670;28;20072;-67
2023/06/12 12:32:52;;;;;;;6.88;4.75;;;33.40;51.30;;;;;;4973525;28;20137;-69
2023/06/12 12:35:19;;;;;;;6.82;4.88;;;33.30;51.10;;;;;;4987891;28;20406;-68
2023/06/12 12:37:46;;;;;;;7.43;4.80;;;33.20;49.80;;;;;;4987076;28;21164;-68
2023/06/12 12:40:13;;;;;;;7.72;5.18;;;32.80;49.70;;;;;;4978518;28;20171;-68
2023/06/12 12:42:41;;;;;;;8.45;5.00;;;32.40;49.70;;;;;;4972543;28;20053;-67
2023/06/12 12:45:09;;;;;;;9.32;5.13;;;31.90;49.90;;;;;;4988438;28;20113;-67